Phaethon — SVAM2 — position and weather

sailwx.info

Track history (hours):
 
Tides and Currents Weather Stations Pressure Air Temp Water Temp Dewpoint Dewpoint Depression Visibility Wind Speed Wind Dir Waves Ship Positions

Phaethon

Last reported at 2014-Jun-29 17:31 UTC. Time now 2014-Jul-25 06:47 UTC.
Position S 28°58' E 032°25'.
Warning: this ship's position is 25 days out of date.

Length 274 m; draft 14.6 m.

Type: Tanker. MMSI: 240836000.

Date/timePositionNaut miles runAvg speedWind from/ knotsBaromVisibWave heightAir tempDewpointWater temp
2014-Jun-29 17:31S 28°58' E 032°25'10 9.2
2014-Jun-29 16:27S 29°06' E 032°19'8 9.1
2014-Jun-29 15:33S 29°14' E 032°16'10 9.8
2014-Jun-29 14:33S 29°19' E 032°06'1010.4
2014-Jun-29 13:33S 29°24' E 031°56'1110.9
2014-Jun-29 12:33S 29°30' E 031°45'1212.1
2014-Jun-29 11:33S 29°36' E 031°34'1312.9
2014-Jun-29 10:33S 29°44' E 031°22'1212.0
2014-Jun-29 09:33S 29°51' E 031°11'1 1.4
2014-Jun-29 08:33S 29°52' E 031°10'1 1.1
2014-Jun-29 07:33S 29°52' E 031°08'1 0.7
2014-Jun-29 06:33S 29°52' E 031°09'1 1.4
2014-Jun-29 05:33S 29°54' E 031°10'6 6.2
2014-Jun-29 04:33S 29°60' E 031°10'8 8.1
2014-Jun-29 03:33S 30°08' E 031°10'1110.8
2014-Jun-29 02:33S 30°19' E 031°08'11 9.9
2014-Jun-29 01:29S 30°29' E 031°04'  
2014-Jun-26 07:16S 35°05' E 019°02'1212.3
2014-Jun-26 06:16S 34°60' E 018°48'1012.3
2014-Jun-26 05:30S 34°55' E 018°38'4511.2
2014-Jun-26 01:26S 34°29' E 017°53'  
Track history (hours):
 
Tides and Currents Weather Stations Pressure Air Temp Water Temp Dewpoint Dewpoint Depression Visibility Wind Speed Wind Dir Waves Ship Positions

Phaethon

Last reported at 2014-Jun-29 17:31 UTC. Time now 2014-Jul-25 06:47 UTC.
Position S 28°58' E 032°25'.
Warning: this ship's position is 25 days out of date.

Length 274 m; draft 14.6 m.

Type: Tanker. MMSI: 240836000.

Date/timePositionNaut miles runAvg speedWind from/ knotsBaromVisibWave heightAir tempDewpointWater temp
2014-Jun-29 17:31S 28°58' E 032°25'10 9.2
2014-Jun-29 16:27S 29°06' E 032°19'8 9.1
2014-Jun-29 15:33S 29°14' E 032°16'10 9.8
2014-Jun-29 14:33S 29°19' E 032°06'1010.4
2014-Jun-29 13:33S 29°24' E 031°56'1110.9
2014-Jun-29 12:33S 29°30' E 031°45'1212.1
2014-Jun-29 11:33S 29°36' E 031°34'1312.9
2014-Jun-29 10:33S 29°44' E 031°22'1212.0
2014-Jun-29 09:33S 29°51' E 031°11'1 1.4
2014-Jun-29 08:33S 29°52' E 031°10'1 1.1
2014-Jun-29 07:33S 29°52' E 031°08'1 0.7
2014-Jun-29 06:33S 29°52' E 031°09'1 1.4
2014-Jun-29 05:33S 29°54' E 031°10'6 6.2
2014-Jun-29 04:33S 29°60' E 031°10'8 8.1
2014-Jun-29 03:33S 30°08' E 031°10'1110.8
2014-Jun-29 02:33S 30°19' E 031°08'11 9.9
2014-Jun-29 01:29S 30°29' E 031°04'  
2014-Jun-26 07:16S 35°05' E 019°02'1212.3
2014-Jun-26 06:16S 34°60' E 018°48'1012.3
2014-Jun-26 05:30S 34°55' E 018°38'4511.2
2014-Jun-26 01:26S 34°29' E 017°53'  

Dump ship's entire track history